createdAt,value
2022-12-16T00:00:04.663Z,-8.90
2022-12-16T00:02:33.820Z,-8.90
2022-12-16T00:05:02.134Z,-8.80
2022-12-16T00:07:30.416Z,-8.90
2022-12-16T00:09:58.722Z,-8.80
2022-12-16T00:12:27.222Z,-8.80
2022-12-16T00:14:56.915Z,-8.70
2022-12-16T00:17:25.200Z,-8.70
2022-12-16T00:19:53.512Z,-8.70
2022-12-16T00:22:21.740Z,-8.70
2022-12-16T00:24:50.074Z,-8.80
2022-12-16T00:27:18.721Z,-8.70
2022-12-16T00:29:46.945Z,-8.80
2022-12-16T00:32:16.734Z,-8.80
2022-12-16T00:34:44.852Z,-8.90
2022-12-16T00:37:13.406Z,-8.80
2022-12-16T00:39:41.855Z,-8.80
2022-12-16T00:42:10.254Z,-8.80
2022-12-16T00:44:38.532Z,-8.80
2022-12-16T00:47:06.770Z,-8.60
2022-12-16T00:49:36.960Z,-8.60
2022-12-16T00:52:05.534Z,-8.60
2022-12-16T00:54:33.837Z,-8.60
2022-12-16T00:57:02.151Z,-8.60
2022-12-16T00:59:30.379Z,-8.70
2022-12-16T01:01:58.887Z,-8.70
2022-12-16T01:04:27.907Z,-8.70
2022-12-16T01:06:58.567Z,-8.70
2022-12-16T01:09:27.019Z,-8.70
2022-12-16T01:11:55.249Z,-8.80
2022-12-16T01:14:24.008Z,-8.80
2022-12-16T01:16:52.706Z,-8.70
2022-12-16T01:19:23.111Z,-8.70
2022-12-16T01:21:51.396Z,-8.70
2022-12-16T01:24:21.905Z,-8.70
2022-12-16T01:26:50.256Z,-8.80
2022-12-16T01:29:19.155Z,-8.70
2022-12-16T01:31:47.448Z,-8.70
2022-12-16T01:34:16.988Z,-8.80
2022-12-16T01:36:46.598Z,-8.90
2022-12-16T01:39:14.968Z,-8.90
2022-12-16T01:41:44.584Z,-9.00
2022-12-16T01:44:16.674Z,-9.00
2022-12-16T01:46:46.984Z,-9.10
2022-12-16T01:49:23.325Z,-9.10
2022-12-16T01:51:55.338Z,-9.10
2022-12-16T01:54:27.887Z,-9.20
2022-12-16T01:56:59.788Z,-9.20
2022-12-16T01:59:30.230Z,-9.20
2022-12-16T02:01:59.757Z,-9.10
2022-12-16T02:04:28.224Z,-9.10
2022-12-16T02:06:56.802Z,-9.20
2022-12-16T02:09:25.411Z,-9.20
2022-12-16T02:12:15.278Z,-9.20
2022-12-16T02:15:13.075Z,-9.20
2022-12-16T02:17:48.851Z,-9.20
2022-12-16T02:20:44.858Z,-9.20
2022-12-16T02:23:50.555Z,-9.20
2022-12-16T02:26:47.749Z,-9.20
2022-12-16T02:29:47.930Z,-9.20
2022-12-16T02:32:27.783Z,-9.30
2022-12-16T02:35:03.636Z,-9.30
2022-12-16T02:37:39.748Z,-9.30
2022-12-16T02:40:13.327Z,-9.30
2022-12-16T02:42:47.220Z,-9.30
2022-12-16T02:45:18.723Z,-9.30
2022-12-16T02:47:48.821Z,-9.40
2022-12-16T02:50:22.100Z,-9.40
2022-12-16T02:52:52.117Z,-9.50
2022-12-16T02:55:21.560Z,-9.50
2022-12-16T02:58:04.416Z,-9.50
2022-12-16T03:00:42.519Z,-9.50
2022-12-16T03:03:15.452Z,-9.70
2022-12-16T03:05:48.399Z,-9.60
2022-12-16T03:08:21.640Z,-9.60
2022-12-16T03:10:53.711Z,-9.60
2022-12-16T03:13:24.912Z,-9.70
2022-12-16T03:15:56.101Z,-9.60
2022-12-16T03:18:26.135Z,-9.60
2022-12-16T03:20:57.200Z,-9.60
2022-12-16T03:23:30.851Z,-9.80
2022-12-16T03:26:07.245Z,-9.80
2022-12-16T03:28:44.909Z,-9.70
2022-12-16T03:31:21.021Z,-9.70
2022-12-16T03:33:58.075Z,-9.60
2022-12-16T03:36:28.478Z,-9.70
2022-12-16T03:38:57.707Z,-9.60
2022-12-16T03:41:26.969Z,-9.60
2022-12-16T03:43:55.316Z,-9.60
2022-12-16T03:46:23.728Z,-9.70
2022-12-16T03:48:53.663Z,-9.70
2022-12-16T03:51:22.085Z,-9.60
2022-12-16T03:53:50.297Z,-9.60
2022-12-16T03:56:18.990Z,-9.60
2022-12-16T03:58:47.199Z,-9.60
2022-12-16T04:01:16.026Z,-9.70
2022-12-16T04:03:44.423Z,-9.80
2022-12-16T04:06:18.934Z,-9.80
2022-12-16T04:08:47.883Z,-9.90
2022-12-16T04:11:34.140Z,-9.80
2022-12-16T04:14:19.641Z,-9.80
2022-12-16T04:17:05.715Z,-9.80
2022-12-16T04:19:55.124Z,-9.80
2022-12-16T04:22:53.837Z,-9.80
2022-12-16T04:25:24.254Z,-9.70
2022-12-16T04:27:52.457Z,-9.70
2022-12-16T04:30:22.027Z,-9.80
2022-12-16T04:33:12.019Z,-9.80
2022-12-16T04:35:58.084Z,-9.80
2022-12-16T04:38:45.620Z,-9.80
2022-12-16T04:41:31.855Z,-9.80
2022-12-16T04:44:17.988Z,-9.80
2022-12-16T04:47:03.936Z,-9.80
2022-12-16T04:49:49.474Z,-9.70
2022-12-16T04:52:36.165Z,-9.70
2022-12-16T04:55:24.514Z,-9.60
2022-12-16T04:58:11.659Z,-9.60
2022-12-16T05:00:58.132Z,-9.60
2022-12-16T05:03:44.491Z,-9.60
2022-12-16T05:06:30.331Z,-9.60
2022-12-16T05:09:16.320Z,-9.70
2022-12-16T05:12:03.678Z,-9.60
2022-12-16T05:15:01.018Z,-9.90
2022-12-16T05:17:46.728Z,-10.10
2022-12-16T05:20:32.636Z,-10.30
2022-12-16T05:23:32.968Z,-10.10
2022-12-16T05:26:19.089Z,-10.10
2022-12-16T05:29:06.222Z,-10.10
2022-12-16T05:31:51.782Z,-10.10
2022-12-16T05:34:43.100Z,-10.00
2022-12-16T05:37:28.662Z,-10.10
2022-12-16T05:40:14.457Z,-10.00
2022-12-16T05:43:03.495Z,-9.80
2022-12-16T05:45:50.713Z,-9.90
2022-12-16T05:48:36.401Z,-9.90
2022-12-16T05:51:22.233Z,-9.90
2022-12-16T05:54:07.664Z,-9.90
2022-12-16T05:56:55.957Z,-10.00
2022-12-16T05:59:41.453Z,-10.00
2022-12-16T06:02:43.181Z,-10.00
2022-12-16T06:05:29.133Z,-9.90
2022-12-16T06:08:15.033Z,-9.80
2022-12-16T06:11:00.344Z,-9.90
2022-12-16T06:13:46.547Z,-9.80
2022-12-16T06:16:31.958Z,-9.80
2022-12-16T06:19:18.915Z,-9.80
2022-12-16T06:22:04.358Z,-9.80
2022-12-16T06:24:49.914Z,-9.80
2022-12-16T06:27:35.327Z,-9.70
2022-12-16T06:30:20.809Z,-9.70
2022-12-16T06:33:21.504Z,-9.70
2022-12-16T06:36:08.854Z,-9.60
2022-12-16T06:38:54.790Z,-9.70
2022-12-16T06:41:40.431Z,-9.60
2022-12-16T06:44:26.398Z,-9.50
2022-12-16T06:47:12.657Z,-9.40
2022-12-16T06:49:58.075Z,-9.40
2022-12-16T06:52:45.139Z,-9.50
2022-12-16T06:55:29.947Z,-9.60
2022-12-16T06:58:16.543Z,-9.60
2022-12-16T07:01:03.089Z,-9.50
2022-12-16T07:03:49.147Z,-9.50
2022-12-16T07:06:34.846Z,-9.40
2022-12-16T07:09:22.466Z,-9.40
2022-12-16T07:12:08.383Z,-9.30
2022-12-16T07:14:53.753Z,-9.40
2022-12-16T07:17:39.897Z,-9.20
2022-12-16T07:20:26.184Z,-9.00
2022-12-16T07:23:17.713Z,-8.90
2022-12-16T07:26:07.922Z,-9.10
2022-12-16T07:28:53.333Z,-9.30
2022-12-16T07:31:38.937Z,-9.30
2022-12-16T07:34:38.595Z,-9.20
2022-12-16T07:37:22.928Z,-9.40
2022-12-16T07:40:08.535Z,-9.20
2022-12-16T07:42:56.489Z,-9.10
2022-12-16T07:45:45.289Z,-9.20
2022-12-16T07:48:30.989Z,-9.20
2022-12-16T07:51:13.046Z,-9.00
2022-12-16T07:53:58.800Z,-9.00
2022-12-16T07:56:44.755Z,-8.80
2022-12-16T07:59:32.077Z,-8.40
2022-12-16T08:02:18.080Z,-8.30
2022-12-16T08:05:03.783Z,-7.60
2022-12-16T08:07:49.245Z,-5.80
2022-12-16T08:10:34.978Z,-4.80
2022-12-16T08:13:25.608Z,-4.60
2022-12-16T08:16:13.434Z,-4.20
2022-12-16T08:18:59.272Z,-3.60
2022-12-16T08:21:44.956Z,-4.10
2022-12-16T08:24:32.994Z,-3.60
2022-12-16T08:27:18.568Z,-5.00
2022-12-16T08:30:04.208Z,-6.50
2022-12-16T08:32:57.168Z,-6.70
2022-12-16T08:35:44.706Z,-6.90
2022-12-16T08:38:35.752Z,-6.70
2022-12-16T08:41:21.334Z,-6.70
2022-12-16T08:44:07.040Z,-6.60
2022-12-16T08:46:52.428Z,-6.70
2022-12-16T08:49:39.831Z,-6.70
2022-12-16T08:52:25.481Z,-6.50
2022-12-16T08:55:11.406Z,-6.40
2022-12-16T08:57:56.736Z,-6.30
2022-12-16T09:00:42.405Z,-6.30
2022-12-16T09:03:28.109Z,-5.90
2022-12-16T09:06:18.714Z,-5.50
2022-12-16T09:09:04.085Z,-5.70
2022-12-16T09:11:49.877Z,-5.50
2022-12-16T09:14:35.593Z,-5.40
2022-12-16T09:17:21.117Z,-5.10
2022-12-16T09:20:06.701Z,-4.80
2022-12-16T09:22:53.752Z,-4.60
2022-12-16T09:25:40.819Z,-4.40
2022-12-16T09:28:26.332Z,-4.20
2022-12-16T09:31:11.955Z,-4.20
2022-12-16T09:33:57.549Z,-4.10
2022-12-16T09:36:42.988Z,-4.20
2022-12-16T09:39:30.300Z,-4.10
2022-12-16T09:42:23.470Z,-4.00
2022-12-16T09:45:20.068Z,-3.90
2022-12-16T09:48:13.058Z,-3.80
2022-12-16T09:51:02.072Z,-3.80
2022-12-16T09:53:58.498Z,-3.90
2022-12-16T09:57:01.261Z,-3.70
2022-12-16T09:59:50.991Z,-3.70
2022-12-16T10:02:38.636Z,-3.70
2022-12-16T10:05:30.179Z,-3.70
2022-12-16T10:08:23.900Z,-3.70
2022-12-16T10:11:19.076Z,-3.70
2022-12-16T10:14:17.886Z,-3.70
2022-12-16T10:17:12.307Z,-3.60
2022-12-16T10:20:09.404Z,-3.40
2022-12-16T10:23:00.983Z,-3.30
2022-12-16T10:26:04.202Z,-3.90
2022-12-16T10:29:03.318Z,-3.60
2022-12-16T10:32:00.030Z,-3.50
2022-12-16T10:34:48.998Z,-3.50
2022-12-16T10:37:39.766Z,-3.60
2022-12-16T10:40:32.999Z,-3.50
2022-12-16T10:43:23.544Z,-3.30
2022-12-16T10:46:12.455Z,-3.50
2022-12-16T10:49:00.079Z,-3.50
2022-12-16T10:51:48.060Z,-3.30
2022-12-16T10:55:02.312Z,-3.40
2022-12-16T10:57:56.013Z,-3.10
2022-12-16T11:00:59.065Z,-3.00
2022-12-16T11:03:46.963Z,-2.90
2022-12-16T11:06:37.854Z,-3.00
2022-12-16T11:09:46.273Z,-2.80
2022-12-16T11:16:01.812Z,-2.80
2022-12-16T11:18:47.359Z,-2.90
2022-12-16T11:21:36.764Z,-2.80
2022-12-16T11:24:31.139Z,-2.80
2022-12-16T11:27:18.503Z,-2.90
2022-12-16T11:30:12.436Z,-2.70
2022-12-16T11:33:02.317Z,-2.60
2022-12-16T11:35:51.858Z,-2.60
2022-12-16T11:38:46.303Z,-2.70
2022-12-16T11:41:44.647Z,-2.60
2022-12-16T11:44:36.868Z,-2.50
2022-12-16T11:47:29.861Z,-2.40
2022-12-16T11:50:17.942Z,-2.10
2022-12-16T11:53:13.534Z,-2.30
2022-12-16T11:56:09.784Z,-2.30
2022-12-16T11:59:04.258Z,-2.30
2022-12-16T12:01:55.550Z,-2.40
2022-12-16T12:04:41.944Z,-2.40
2022-12-16T12:07:45.846Z,-2.50
2022-12-16T12:11:01.052Z,-2.10
2022-12-16T12:14:05.668Z,-1.90
2022-12-16T12:17:02.892Z,-2.40
2022-12-16T12:20:00.691Z,-2.40
2022-12-16T12:22:52.844Z,-2.30
2022-12-16T12:25:46.858Z,-2.30
2022-12-16T12:28:46.010Z,-2.30
2022-12-16T12:31:45.736Z,-2.40
2022-12-16T12:34:41.553Z,-2.40
2022-12-16T12:37:34.227Z,-2.30
2022-12-16T12:40:31.531Z,-2.40
2022-12-16T12:43:18.443Z,-2.30
2022-12-16T12:46:16.838Z,-2.30
2022-12-16T12:49:10.598Z,-2.30
2022-12-16T12:52:04.702Z,-2.30
2022-12-16T12:58:32.600Z,-2.20
2022-12-16T13:01:20.570Z,-2.10
2022-12-16T13:04:14.183Z,-2.20
2022-12-16T13:07:00.295Z,-2.10
2022-12-16T13:09:51.017Z,-2.30
2022-12-16T13:12:46.108Z,-2.30
2022-12-16T13:15:54.882Z,-2.30
2022-12-16T13:18:43.036Z,-2.30
2022-12-16T13:22:11.244Z,-2.30
2022-12-16T13:25:06.987Z,-2.30
2022-12-16T13:28:11.176Z,-2.50
2022-12-16T13:30:57.150Z,-2.50
2022-12-16T13:33:45.889Z,-2.60
2022-12-16T13:36:33.849Z,-2.70
2022-12-16T13:39:42.102Z,-2.80
2022-12-16T13:43:07.279Z,-2.70
2022-12-16T13:46:01.559Z,-2.80
2022-12-16T13:48:53.537Z,-2.70
2022-12-16T13:52:24.441Z,-2.60
2022-12-16T13:55:32.539Z,-2.60
2022-12-16T14:02:06.958Z,-2.60
2022-12-16T14:04:55.405Z,-2.70
2022-12-16T14:07:43.300Z,-2.70
2022-12-16T14:10:43.200Z,-2.70
2022-12-16T14:13:37.061Z,-2.70
2022-12-16T14:16:38.250Z,-2.70
2022-12-16T14:19:40.408Z,-2.80
2022-12-16T14:22:43.059Z,-2.80
2022-12-16T14:25:34.058Z,-2.80
2022-12-16T14:28:20.493Z,-2.90
2022-12-16T14:31:17.519Z,-2.90
2022-12-16T14:34:11.668Z,-2.90
2022-12-16T14:36:59.301Z,-3.00
2022-12-16T14:39:49.779Z,-3.00
2022-12-16T14:42:41.482Z,-3.00
2022-12-16T14:45:40.837Z,-3.00
2022-12-16T14:48:49.566Z,-3.00
2022-12-16T14:51:41.778Z,-3.10
2022-12-16T14:54:41.347Z,-3.00
2022-12-16T14:57:31.974Z,-3.00
2022-12-16T15:00:32.682Z,-3.00
2022-12-16T15:03:24.689Z,-3.00
2022-12-16T15:06:12.193Z,-3.10
2022-12-16T15:09:06.067Z,-3.20
2022-12-16T15:11:54.730Z,-3.20
2022-12-16T15:14:49.896Z,-3.40
2022-12-16T15:17:40.097Z,-3.40
2022-12-16T15:20:34.703Z,-3.30
2022-12-16T15:23:20.875Z,-3.30
2022-12-16T15:26:13.186Z,-3.40
2022-12-16T15:29:07.625Z,-3.40
2022-12-16T15:31:56.823Z,-3.50
2022-12-16T15:34:49.792Z,-3.60
2022-12-16T15:37:40.779Z,-3.70
2022-12-16T15:40:41.374Z,-3.70
2022-12-16T15:43:41.095Z,-3.70
2022-12-16T15:46:37.905Z,-3.80
2022-12-16T15:49:24.206Z,-3.70
2022-12-16T15:52:11.030Z,-3.70
2022-12-16T15:55:25.436Z,-3.70
2022-12-16T15:58:17.333Z,-3.60
2022-12-16T16:01:16.028Z,-3.70
2022-12-16T16:04:09.158Z,-3.70
2022-12-16T16:06:58.986Z,-3.80
2022-12-16T16:09:46.910Z,-3.90
2022-12-16T16:12:34.492Z,-4.00
2022-12-16T16:15:16.794Z,-4.10
2022-12-16T16:18:03.119Z,-4.10
2022-12-16T16:20:50.168Z,-4.10
2022-12-16T16:23:36.135Z,-4.10
2022-12-16T16:26:22.143Z,-4.20
2022-12-16T16:29:07.775Z,-4.20
2022-12-16T16:31:53.415Z,-4.20
2022-12-16T16:34:38.830Z,-4.30
2022-12-16T16:37:33.325Z,-4.30
2022-12-16T16:40:19.487Z,-4.30
2022-12-16T16:43:05.389Z,-4.30
2022-12-16T16:45:51.117Z,-4.40
2022-12-16T16:48:37.788Z,-4.40
2022-12-16T16:51:23.984Z,-4.50
2022-12-16T16:54:10.912Z,-4.50
2022-12-16T16:56:57.564Z,-4.50
2022-12-16T16:59:43.906Z,-4.60
2022-12-16T17:02:40.850Z,-4.70
2022-12-16T17:05:29.399Z,-4.70
2022-12-16T17:08:15.843Z,-4.70
2022-12-16T17:11:03.072Z,-4.70
2022-12-16T17:13:48.654Z,-4.70
2022-12-16T17:16:34.450Z,-4.70
2022-12-16T17:19:22.598Z,-4.70
2022-12-16T17:22:08.327Z,-4.70
2022-12-16T17:24:54.532Z,-4.60
2022-12-16T17:27:55.556Z,-4.60
2022-12-16T17:30:48.141Z,-4.70
2022-12-16T17:33:34.488Z,-4.70
2022-12-16T17:36:20.520Z,-4.70
2022-12-16T17:39:06.556Z,-4.80
2022-12-16T17:41:54.179Z,-4.90
2022-12-16T17:44:41.445Z,-4.80
2022-12-16T17:47:27.462Z,-4.90
2022-12-16T17:50:13.321Z,-5.00
2022-12-16T17:52:58.996Z,-5.10
2022-12-16T17:55:45.031Z,-5.20
2022-12-16T17:58:31.952Z,-5.30
2022-12-16T18:01:21.604Z,-5.30
2022-12-16T18:04:07.840Z,-5.40
2022-12-16T18:06:53.967Z,-5.40
2022-12-16T18:09:39.788Z,-5.50
2022-12-16T18:12:25.752Z,-5.40
2022-12-16T18:15:11.429Z,-5.40
2022-12-16T18:17:58.858Z,-5.40
2022-12-16T18:20:44.857Z,-5.50
2022-12-16T18:23:30.692Z,-5.60
2022-12-16T18:26:19.293Z,-5.60
2022-12-16T18:29:05.396Z,-5.70
2022-12-16T18:31:51.677Z,-5.70
2022-12-16T18:34:40.185Z,-5.60
2022-12-16T18:37:26.153Z,-5.60
2022-12-16T18:40:12.238Z,-5.70
2022-12-16T18:42:57.809Z,-5.70
2022-12-16T18:45:43.516Z,-5.90
2022-12-16T18:48:31.773Z,-6.00
2022-12-16T18:51:19.797Z,-6.00
2022-12-16T18:54:05.290Z,-6.00
2022-12-16T18:56:51.242Z,-5.90
2022-12-16T18:59:36.882Z,-5.90
2022-12-16T19:02:22.809Z,-6.00
2022-12-16T19:05:08.560Z,-5.90
2022-12-16T19:07:52.154Z,-6.00
2022-12-16T19:10:38.132Z,-6.10
2022-12-16T19:13:23.687Z,-6.00
2022-12-16T19:16:27.874Z,-6.10
2022-12-16T19:19:19.392Z,-6.10
2022-12-16T19:22:06.181Z,-6.10
2022-12-16T19:27:59.161Z,-6.10
2022-12-16T19:30:44.960Z,-6.00
2022-12-16T19:33:30.769Z,-5.90
2022-12-16T19:36:16.611Z,-5.90
2022-12-16T19:39:01.907Z,-5.80
2022-12-16T19:41:50.211Z,-5.90
2022-12-16T19:44:35.761Z,-5.90
2022-12-16T19:47:21.626Z,-6.00
2022-12-16T19:50:07.067Z,-5.90
2022-12-16T19:52:52.649Z,-6.00
2022-12-16T19:55:41.623Z,-6.10
2022-12-16T19:58:28.420Z,-6.20
2022-12-16T20:01:14.197Z,-6.10
2022-12-16T20:03:56.889Z,-6.00
2022-12-16T20:06:42.630Z,-5.90
2022-12-16T20:09:28.687Z,-5.90
2022-12-16T20:12:14.184Z,-5.80
2022-12-16T20:15:01.575Z,-5.80
2022-12-16T20:17:47.112Z,-5.70
2022-12-16T20:20:33.110Z,-5.60
2022-12-16T20:23:18.778Z,-5.70
2022-12-16T20:26:13.293Z,-5.80
2022-12-16T20:28:59.121Z,-5.80
2022-12-16T20:32:00.865Z,-5.70
2022-12-16T20:34:46.511Z,-5.80
2022-12-16T20:37:32.490Z,-5.80
2022-12-16T20:40:18.494Z,-5.70
2022-12-16T20:43:03.945Z,-5.50
2022-12-16T20:45:49.626Z,-5.70
2022-12-16T20:48:37.129Z,-5.70
2022-12-16T20:51:26.877Z,-5.70
2022-12-16T20:54:13.388Z,-5.80
2022-12-16T20:56:59.300Z,-5.80
2022-12-16T20:59:44.961Z,-5.80
2022-12-16T21:02:34.087Z,-5.70
2022-12-16T21:05:21.974Z,-5.90
2022-12-16T21:08:07.786Z,-5.70
2022-12-16T21:10:56.011Z,-5.70
2022-12-16T21:13:41.848Z,-5.70
2022-12-16T21:16:27.960Z,-5.80
2022-12-16T21:19:14.210Z,-5.60
2022-12-16T21:22:01.402Z,-5.60
2022-12-16T21:24:46.975Z,-5.60
2022-12-16T21:27:45.330Z,-5.40
2022-12-16T21:30:31.153Z,-5.40
2022-12-16T21:33:16.998Z,-5.40
2022-12-16T21:36:09.438Z,-5.50
2022-12-16T21:38:56.760Z,-5.50
2022-12-16T21:41:45.458Z,-5.50
2022-12-16T21:44:30.865Z,-5.60
2022-12-16T21:47:17.211Z,-5.50
2022-12-16T21:50:03.020Z,-5.50
2022-12-16T21:52:48.473Z,-5.60
2022-12-16T21:55:35.725Z,-5.80
2022-12-16T21:58:21.477Z,-5.90
2022-12-16T22:01:13.115Z,-6.00
2022-12-16T22:03:58.968Z,-5.90
2022-12-16T22:06:46.901Z,-6.20
2022-12-16T22:09:34.518Z,-6.10
2022-12-16T22:12:22.319Z,-6.00
2022-12-16T22:15:07.824Z,-5.80
2022-12-16T22:17:58.318Z,-5.90
2022-12-16T22:20:44.427Z,-5.80
2022-12-16T22:23:30.152Z,-5.70
2022-12-16T22:26:16.354Z,-5.90
2022-12-16T22:29:03.336Z,-5.70
2022-12-16T22:31:49.111Z,-5.70
2022-12-16T22:34:34.954Z,-5.70
2022-12-16T22:37:20.602Z,-5.80
2022-12-16T22:40:06.500Z,-5.70
2022-12-16T22:42:52.260Z,-5.70
2022-12-16T22:45:41.483Z,-5.70
2022-12-16T22:48:27.566Z,-5.80
2022-12-16T22:51:13.034Z,-5.70
2022-12-16T22:53:58.714Z,-5.60
2022-12-16T22:56:44.233Z,-5.70
2022-12-16T22:59:29.855Z,-5.50
2022-12-16T23:02:16.838Z,-5.50
2022-12-16T23:05:02.950Z,-5.40
2022-12-16T23:07:48.654Z,-5.50
2022-12-16T23:10:34.303Z,-5.50
2022-12-16T23:13:20.183Z,-5.50
2022-12-16T23:16:05.717Z,-5.50
2022-12-16T23:18:56.635Z,-5.40
2022-12-16T23:21:42.220Z,-5.40
2022-12-16T23:24:29.492Z,-5.30
2022-12-16T23:27:15.435Z,-5.40
2022-12-16T23:30:01.670Z,-5.30
2022-12-16T23:32:46.963Z,-5.40
2022-12-16T23:35:34.307Z,-5.30
2022-12-16T23:38:20.766Z,-5.40
2022-12-16T23:41:06.810Z,-5.30
2022-12-16T23:43:53.191Z,-5.40
2022-12-16T23:46:41.907Z,-5.40
2022-12-16T23:49:27.585Z,-5.50
2022-12-16T23:52:14.788Z,-5.40
2022-12-16T23:55:00.550Z,-5.30
2022-12-16T23:57:46.444Z,-5.20
